SLOA4: Illinois River nr Siloam Springs AR

Data processed at Sat Mar 10 2018 22:18


All information presented herein is the property of the government of the United States of America and may be revised or deleted at any time without prior notice.
Dissemination of this information without the expressed written consent of the Public Affairs Office, Tulsa District U.S. Army Corps of Engineers is strictly prohibited.
These data are gathered electronically and, as presented, have not undergone any form of quality control. These data are not guaranteed to be valid or correct.
Go to home page.
Go to station list.

Upstream stations:

Downstream station:
Previous Day
Next Day
Current Day
    
SHEF ID:       SLOA4     Illinois River South of Siloam S
STATION TYPE:  

                STAGE  RIV-FLOW  BAT-LOAD
                   ft       cfs      volt
              Ccp-Rev   Ccp-Rev   Ccp-Rev
(US/Central)
03/08 00:00      4.02       833     12.42
03/08 01:00      4.03       841     12.36
03/08 02:00      4.02       833     12.36
03/08 03:00      4.00       819     12.30
03/08 04:00      3.99       811     12.24
03/08 05:00      3.98       804     12.24
03/08 06:00      4.00       819     12.24
03/08 07:00      3.96       789     12.19
03/08 08:00      3.97       797     12.19
03/08 09:00      3.97       797     12.89
03/08 10:00      3.99       811     14.06
03/08 11:00      3.99       811     14.35
03/08 12:00      4.00       819     14.35
03/08 13:00      4.02       833     14.30
03/08 14:00      4.01       826     14.30
03/08 15:00      4.01       826     14.24
03/08 16:00      3.99       811     14.12
03/08 17:00      4.00       819     14.00
03/08 18:00      3.99       811     13.83
03/08 19:00      3.95       782     13.24
03/08 20:00      3.94       775     12.65
03/08 21:00      3.94       775     12.48
03/08 22:00      3.92       761     12.48
03/08 23:00      3.92       761     12.42